ADDS METAR Data INFO
IDs: Format: Raw Decoded Include TAF

Data at: 1133 UTC 29 May 2017

KT35 291115Z AUTO 35004KT 7SM BKN008 20/20 A2996 RMK AO2 T02020198
KT35 291055Z AUTO 36005KT 7SM CLR 20/20 A2994 RMK AO2 T02000195
KT35 291035Z AUTO 34004KT 7SM CLR 20/20 A2993 RMK AO2 T02000195
KT35 291015Z AUTO 32004KT 7SM CLR 20/19 A2994 RMK AO2 T02000194
KT35 290955Z AUTO 28004KT 10SM CLR 20/20 A2995 RMK AO2 T02010195
KT35 290935Z AUTO 28003KT 10SM CLR 20/20 A2994 RMK AO2 T02020195
KT35 290915Z AUTO 00000KT 10SM CLR 20/20 A2995 RMK AO2 T02030196
KT35 290855Z AUTO 00000KT 10SM CLR 20/20 A2996 RMK AO2 LTG DSNT SE T02030195
KT35 290835Z AUTO 15003KT 10SM CLR 21/20 A2996 RMK AO2 T02050195
KT35 290815Z AUTO 16003KT 10SM CLR 21/20 A2996 RMK AO2 T02050195
KT35 290755Z AUTO 13004KT 10SM SCT010 BKN019 21/20 A2997 RMK AO2 T02070195
KT35 290735Z AUTO 09003KT 10SM BKN012 OVC017 21/20 A2996 RMK AO2 T02110198
KT35 290715Z AUTO 10003KT 10SM BKN010 21/20 A2997 RMK AO2 T02080196
KT35 290655Z AUTO 00000KT 10SM BKN008 21/20 A2996 RMK AO2 LTG DSNT SE T02060196
KT35 290635Z AUTO 16011G14KT 100V160 10SM CLR 21/20 A2998 RMK AO2 LTG DSNT SE AND S T02100201
KT35 290615Z AUTO 36007KT 10SM CLR 20/19 A2995 RMK AO2 LTG DSNT S T02040194
KT35 290555Z AUTO 36008KT 10SM CLR 20/19 A2994 RMK AO2 LTG DSNT S 60052 T02030191 10245 20203 403290203
KT35 290535Z AUTO 01007KT 10SM CLR 21/20 A2994 RMK AO2 LTG DSNT SE T02050195
KT35 290515Z AUTO 00000KT 10SM CLR 21/20 A2995 RMK AO2 LTG DSNT E THRU S T02070197
KT35 290455Z AUTO 11003KT 10SM -RA SCT090 SCT120 21/20 A2993 RMK AO2 LTG DSNT E P0002 T02100197
KT35 290435Z AUTO 33004KT 10SM -RA SCT070 SCT090 SCT120 21/20 A3001 RMK AO2 LTG DSNT E S AND W P0001 T02130196
KT35 290415Z AUTO 33007G14KT 10SM -RA SCT015 BKN100 OVC110 21/20 A3000 RMK AO2 LTG DSNT NE THRU SW P0001 T02120196
KT35 290355Z AUTO 21010G16KT 10SM -RA BKN110 22/20 A3000 RMK AO2 LTG DSNT NE THRU S P0002 T02160197
KT35 290335Z AUTO 24007G14KT 10SM -RA BKN110 22/19 A2999 RMK AO2 LTG DSNT NE AND E P0001 T02240185
KT35 290315Z AUTO 25010KT 10SM VCTSRA BKN110 22/19 A2998 RMK AO2 LTG DSNT ALQS P0001 T02150185
KT35 290255Z AUTO 02014G20KT 10SM -VCTSRA SCT075 SCT085 BKN110 22/18 A2994 RMK AO2 LTG DSNT ALQS P0011 60048 T02150184
KT35 290235Z AUTO 36017KT 7SM VCTSRA SCT075 OVC100 21/19 A2992 RMK AO2 LTG DSNT ALQS P0009 T02110189
KT35 290215Z AUTO 35008KT 10SM TSRA SCT004 SCT022 OVC100 21/20 A3000 RMK AO2 LTG DSNT ALQS P0004 T02050195
KT35 290155Z AUTO 01018G24KT 2 1/2SM +TSRA SCT003 BKN014 OVC055 21/20 A3002 RMK AO2 LTG DSNT ALQS P0037 T02060198
KT35 290130Z AUTO 30014KT 10SM TSRA SCT012 OVC060 22/20 A2996 RMK AO2 LTG DSNT ALQS P0001 T02220200
KT35 290115Z AUTO 16006KT 10SM VCTS OVC060 22/20 A2990 RMK AO2 LTG DSNT ALQS T02240195
KT35 290055Z AUTO 13006KT 10SM -VCTSRA OVC050 22/19 A2987 RMK AO2 LTG DSNT ALQS T02160188
KT35 290035Z AUTO 05005KT 10SM TS OVC050 22/18 A2988 RMK AO2 LTG DSNT ALQS T02200181
KT35 290015Z AUTO 01012G17KT 10SM -TSRA OVC048 22/18 A2984 RMK AO2 LTG DSNT ALQS T02190177
KT35 282355Z AUTO 05014G24KT 10SM -TSRA SCT030 BKN040 OVC046 23/17 A2988 RMK AO2 LTG DSNT ALQS T02250169 10329 20221
KT35 282335Z AUTO 03019G25KT 10SM TS SCT015 BKN030 OVC043 23/18 A2987 RMK AO2 LTG DSNT ALQS T02330184
KT35 282315Z AUTO 36012G19KT 10SM TS BKN043 BKN065 BKN090 28/24 A2987 RMK AO2 LTG DSNT ALQS T02760235
KT35 282255Z AUTO 22004KT 10SM VCTS SCT090 31/23 A2982 RMK AO2 LTG DSNT W THRU E T03060231
KT35 282235Z AUTO 20005KT 10SM VCTS SCT043 31/23 A2983 RMK AO2 LTG DSNT ALQS T03100232
KT35 282215Z AUTO 17005KT 10SM SCT065 SCT075 32/23 A2983 RMK AO2 LTG DSNT W THRU NE T03150233 PWINO
KT35 282155Z AUTO 15007KT 10SM SCT055 SCT065 SCT075 32/23 A2984 RMK AO2 LTG DSNT W THRU N T03160234 PWINO
KT35 282135Z AUTO 17004KT 10SM SCT047 SCT055 SCT070 32/24 A2986 RMK AO2 LTG DSNT W THRU N T03210238 PWINO
KT35 282115Z AUTO 16005KT 10SM SCT040 SCT047 BKN055 33/24 A2987 RMK AO2 T03260238 PWINO
KT35 282055Z AUTO 17005KT 10SM SCT048 SCT060 33/24 A2989 RMK AO2 LTG DSNT N AND NE T03260237 PWINO
KT35 282035Z AUTO 18006KT 10SM SCT041 SCT046 OVC060 33/24 A2989 RMK AO2 T03270238 PWINO
KT35 282015Z AUTO 18008KT 10SM SCT040 BKN047 OVC050 32/24 A2989 RMK AO2 T03200239 PWINO
KT35 281955Z AUTO 18009KT 10SM SCT036 SCT043 BKN055 32/24 A2989 RMK AO2 T03210238 PWINO
KT35 281935Z AUTO 16006KT 10SM SCT042 BKN049 32/24 A2989 RMK AO2 T03240241 PWINO
KT35 281915Z AUTO 17008KT 10SM SCT036 BKN047 32/24 A2989 RMK AO2 T03160240 PWINO
KT35 281855Z AUTO 19008KT 10SM SCT032 OVC041 32/24 A2990 RMK AO2 T03170239 PWINO
KT35 281835Z AUTO 17010KT 10SM SCT035 BKN043 31/24 A2991 RMK AO2 T03120236
KT35 281815Z AUTO 17010KT 10SM SCT028 BKN039 BKN045 31/24 A2991 RMK AO2 T03140240
KT35 281755Z AUTO 14008G14KT 120V180 10SM SCT028 BKN039 31/24 A2991 RMK AO2 T03090241 10310 20238
KT35 281735Z AUTO 16007KT 10SM SCT026 BKN035 BKN042 31/24 A2991 RMK AO2 T03060243
KT35 281715Z AUTO 16006KT 10SM SCT026 BKN032 OVC039 30/24 A2992 RMK AO2 T03010241
KT35 281655Z AUTO 15009G14KT 10SM BKN026 OVC034 30/24 A2992 RMK AO2 T03000238
KT35 281635Z AUTO 16007KT 130V190 10SM SCT019 BKN026 OVC031 30/24 A2992 RMK AO2 T02970242
KT35 281615Z AUTO 14007KT 10SM BKN017 BKN024 BKN028 29/24 A2993 RMK AO2 T02870238
KT35 281555Z AUTO 12007KT 10SM BKN015 BKN020 OVC026 29/25 A2993 RMK AO2 T02890245
KT35 281535Z AUTO 10008KT 10SM OVC013 27/24 A2993 RMK AO2 T02730240
KT35 281515Z AUTO 12007KT 7SM BKN011 OVC017 27/24 A2993 RMK AO2 T02650239
KT35 281455Z AUTO 11008KT 7SM BKN013 OVC019 26/24 A2994 RMK AO2 T02610238
KT35 281435Z AUTO 12006KT 7SM SCT009 BKN015 OVC024 26/24 A2994 RMK AO2 T02600238
KT35 281415Z AUTO 09007KT 7SM OVC022 26/24 A2993 RMK AO2 T02550236
KT35 281355Z AUTO 10003KT 7SM BKN017 OVC023 25/24 A2993 RMK AO2 T02510235
KT35 281335Z AUTO 07003KT 7SM OVC015 25/23 A2992 RMK AO2 T02460232
KT35 281315Z AUTO 06003KT 7SM SCT010 BKN017 OVC025 25/23 A2991 RMK AO2 T02470233
KT35 281255Z AUTO 02006KT 5SM BR BKN025 24/23 A2990 RMK AO2 T02420231
KT35 281235Z AUTO 00000KT 7SM SCT025 24/23 A2987 RMK AO2 T02420230
KT35 281215Z AUTO 00000KT 7SM SCT025 24/23 A2987 RMK AO2 T02390227
KT35 281155Z AUTO 21003KT 7SM CLR 24/23 A2986 RMK AO2 T02380226 10250 20235
KT35 281135Z AUTO 00000KT 7SM CLR 24/23 A2985 RMK AO2 T02370226
KT35 281115Z AUTO 20004KT 7SM CLR 24/23 A2984 RMK AO2 LTG DSNT NE T02380226
KT35 281055Z AUTO 00000KT 7SM CLR 24/23 A2984 RMK AO2 T02360225
KT35 281035Z AUTO 19006KT 7SM CLR 24/23 A2982 RMK AO2 T02380226
KT35 281015Z AUTO 18006KT 10SM CLR 24/23 A2981 RMK AO2 LTG DSNT NE T02400226
KT35 280955Z AUTO 19006KT 10SM CLR 24/23 A2982 RMK AO2 T02410226
KT35 280935Z AUTO 21007KT 10SM SCT020 24/23 A2982 RMK AO2 T02430226
KT35 280915Z AUTO 20005KT 10SM BKN018 25/23 A2981 RMK AO2 T02450226
KT35 280855Z AUTO 19012G16KT 10SM BKN014 25/23 A2980 RMK AO2 T02450227
KT35 280835Z AUTO 20010G17KT 10SM OVC012 25/23 A2980 RMK AO2 LTG DSNT NE T02460227
KT35 280815Z AUTO 20010KT 10SM OVC012 25/23 A2981 RMK AO2 T02470228
KT35 280755Z AUTO 19011KT 10SM OVC010 25/23 A2980 RMK AO2 T02460228
KT35 280735Z AUTO 18011G22KT 10SM SCT010 25/23 A2979 RMK AO2 T02450228
KT35 280715Z AUTO 17015G21KT 10SM SCT012 25/23 A2977 RMK AO2 T02450230
KT35 280655Z AUTO 18009G16KT 10SM OVC012 25/23 A2980 RMK AO2 LTG DSNT NW T02460230
KT35 280635Z AUTO 20009KT 10SM BKN012 25/23 A2981 RMK AO2 T02460230
KT35 280615Z AUTO 18012G18KT 10SM SCT012 25/23 A2981 RMK AO2 LTG DSNT NW T02480229
KT35 280555Z AUTO 19014G17KT 10SM SCT012 25/23 A2982 RMK AO2 T02480229 10321 20248 403420248
KT35 280535Z AUTO 18013G19KT 10SM SCT014 25/23 A2983 RMK AO2 T02500230
KT35 280515Z AUTO 19012G16KT 10SM SCT014 25/23 A2984 RMK AO2 T02500230
KT35 280455Z AUTO 19010KT 10SM CLR 25/23 A2985 RMK AO2 T02510230
KT35 280435Z AUTO 18009KT 10SM CLR 26/23 A2986 RMK AO2 T02550229
KT35 280415Z AUTO 18008KT 10SM CLR 26/23 A2986 RMK AO2 T02560227
KT35 280355Z AUTO 18009G14KT 10SM CLR 26/23 A2985 RMK AO2 T02630227
KT35 280335Z AUTO 17008KT 10SM CLR 27/23 A2985 RMK AO2 T02670225
KT35 280315Z AUTO 18010G15KT 10SM CLR 27/23 A2984 RMK AO2 T02710225
KT35 280255Z AUTO 17008KT 10SM CLR 28/22 A2983 RMK AO2 T02760223
KT35 280235Z AUTO 17010G18KT 10SM CLR 28/22 A2983 RMK AO2 T02830223
KT35 280215Z AUTO 17010G15KT 10SM CLR 29/23 A2983 RMK AO2 T02860225
KT35 280155Z AUTO 16008G15KT 10SM CLR 29/23 A2982 RMK AO2 T02900230
KT35 280135Z AUTO 17009KT 10SM CLR 30/23 A2982 RMK AO2 T02950232
KT35 280115Z AUTO 17007KT 10SM CLR 30/24 A2981 RMK AO2 T03010235 PWINO
KT35 280055Z AUTO 17009G17KT 10SM CLR 31/24 A2981 RMK AO2 T03050236 PWINO
KT35 280035Z AUTO 16007KT 10SM CLR 31/24 A2980 RMK AO2 T03120237 PWINO
KT35 280015Z AUTO 17008KT 10SM CLR 32/24 A2980 RMK AO2 T03180236 PWINO
KT35 272355Z AUTO 17009KT 10SM CLR 32/24 A2980 RMK AO2 T03210239 10342 20306 PWINO
KT35 272335Z AUTO 16006G15KT 10SM CLR 32/24 A2980 RMK AO2 T03200239 PWINO


Page loaded:  11:33 UTC  |   04:33 AM Pacific  |   05:33 AM Mountain  |   06:33 AM Central  |   07:33 AM Eastern

 

ADVISORIES

FORECASTS

FORECASTS

OBSERVATIONS

USER TOOLS

ABOUT US